CPA348 VHHH-ZSSS
Flight info
| Callsign | CPA348 |
|---|---|
| Flight time | 1h 51m |
| Altitude | 35000 |
| Route | LEKEN V601 DOTMI/K0920S1065 A470 LJG B221 SHZ G204 AND AND61A |
| Aircraft | B77W/H-SDE1E2E3FGHIJ2J3J4J5M1RWXY/LB1D1 |
Departure
| Time | 2026-05-06 12:26 |
|---|---|
| Airport | Hong Kong International Airport (VHHH) |
Arrival
| Time | 2026-05-06 14:17 |
|---|---|
| Airport | Shanghai Hongqiao International Airport (ZSSS) |
| Time | Latitude | Longitude | Altitude | Speed | Heading |
|---|---|---|---|---|---|
| 2026-05-06 11:56 | 22.31503 | 113.92211 | 37 ft | 0 kts | 128° |
| 2026-05-06 12:11 | 22.31504 | 113.92209 | 37 ft | 3 kts | 128° |
| 2026-05-06 12:11 | 22.31519 | 113.92188 | 35 ft | 2 kts | 128° |
| 2026-05-06 12:11 | 22.31536 | 113.92170 | 35 ft | 4 kts | 149° |
| 2026-05-06 12:11 | 22.31559 | 113.92162 | 36 ft | 4 kts | 191° |
| 2026-05-06 12:12 | 22.31579 | 113.92174 | 33 ft | 4 kts | 247° |
| 2026-05-06 12:12 | 22.31588 | 113.92201 | 33 ft | 4 kts | 251° |
| 2026-05-06 12:12 | 22.31593 | 113.92216 | 34 ft | 0 kts | 251° |
| 2026-05-06 12:15 | 22.31593 | 113.92215 | 34 ft | 1 kts | 251° |
| 2026-05-06 12:15 | 22.31585 | 113.92190 | 35 ft | 6 kts | 251° |
| 2026-05-06 12:16 | 22.31563 | 113.92123 | 37 ft | 12 kts | 250° |
| 2026-05-06 12:16 | 22.31535 | 113.92034 | 37 ft | 13 kts | 251° |
| 2026-05-06 12:16 | 22.31511 | 113.91961 | 37 ft | 7 kts | 251° |
| 2026-05-06 12:16 | 22.31494 | 113.91913 | 37 ft | 7 kts | 244° |
| 2026-05-06 12:17 | 22.31455 | 113.91888 | 37 ft | 7 kts | 181° |
| 2026-05-06 12:17 | 22.31407 | 113.91903 | 37 ft | 9 kts | 162° |
| 2026-05-06 12:17 | 22.31304 | 113.91939 | 37 ft | 22 kts | 160° |
| 2026-05-06 12:17 | 22.31150 | 113.91998 | 37 ft | 24 kts | 160° |
| 2026-05-06 12:18 | 22.30995 | 113.92056 | 37 ft | 24 kts | 161° |
| 2026-05-06 12:18 | 22.30892 | 113.92094 | 37 ft | 24 kts | 161° |
| 2026-05-06 12:18 | 22.30766 | 113.92141 | 37 ft | 11 kts | 161° |
| 2026-05-06 12:18 | 22.30669 | 113.92157 | 37 ft | 11 kts | 213° |
| 2026-05-06 12:19 | 22.30635 | 113.92084 | 37 ft | 11 kts | 250° |
| 2026-05-06 12:19 | 22.30606 | 113.91995 | 37 ft | 18 kts | 251° |
| 2026-05-06 12:19 | 22.30568 | 113.91876 | 37 ft | 31 kts | 251° |
| 2026-05-06 12:19 | 22.30514 | 113.91709 | 37 ft | 24 kts | 251° |
| 2026-05-06 12:20 | 22.30459 | 113.91542 | 37 ft | 24 kts | 250° |
| 2026-05-06 12:20 | 22.30405 | 113.91375 | 37 ft | 24 kts | 251° |
| 2026-05-06 12:20 | 22.30351 | 113.91207 | 37 ft | 24 kts | 251° |
| 2026-05-06 12:20 | 22.30297 | 113.91039 | 37 ft | 24 kts | 251° |
| 2026-05-06 12:21 | 22.30243 | 113.90872 | 37 ft | 24 kts | 251° |
| 2026-05-06 12:21 | 22.30190 | 113.90704 | 37 ft | 24 kts | 251° |
| 2026-05-06 12:21 | 22.30135 | 113.90537 | 37 ft | 24 kts | 250° |
| 2026-05-06 12:21 | 22.30081 | 113.90369 | 37 ft | 24 kts | 251° |
| 2026-05-06 12:22 | 22.30028 | 113.90204 | 37 ft | 24 kts | 251° |
| 2026-05-06 12:22 | 22.29974 | 113.90037 | 37 ft | 24 kts | 251° |
| 2026-05-06 12:22 | 22.29921 | 113.89870 | 37 ft | 24 kts | 251° |
| 2026-05-06 12:22 | 22.29891 | 113.89777 | 37 ft | 10 kts | 249° |
| 2026-05-06 12:23 | 22.29838 | 113.89737 | 37 ft | 10 kts | 181° |
| 2026-05-06 12:23 | 22.29771 | 113.89755 | 37 ft | 10 kts | 162° |
| 2026-05-06 12:23 | 22.29705 | 113.89779 | 36 ft | 10 kts | 160° |
| 2026-05-06 12:23 | 22.29639 | 113.89806 | 35 ft | 9 kts | 153° |
| 2026-05-06 12:24 | 22.29637 | 113.89864 | 35 ft | 9 kts | 64° |
| 2026-05-06 12:24 | 22.29650 | 113.89900 | 35 ft | 0 kts | 70° |
| 2026-05-06 12:25 | 22.29656 | 113.89918 | 35 ft | 13 kts | 70° |
| 2026-05-06 12:25 | 22.29756 | 113.90226 | 35 ft | 81 kts | 71° |
| 2026-05-06 12:25 | 22.30017 | 113.91039 | 36 ft | 147 kts | 71° |
| 2026-05-06 12:25 | 22.30404 | 113.92252 | 111 ft | 189 kts | 71° |
| 2026-05-06 12:26 | 22.30834 | 113.93615 | 742 ft | 194 kts | 73° |
| 2026-05-06 12:26 | 22.31270 | 113.94977 | 1492 ft | 193 kts | 72° |
| 2026-05-06 12:26 | 22.31735 | 113.96382 | 1974 ft | 205 kts | 73° |
| 2026-05-06 12:26 | 22.32232 | 113.97870 | 2318 ft | 224 kts | 72° |
| 2026-05-06 12:27 | 22.32777 | 113.99562 | 2516 ft | 251 kts | 72° |
| 2026-05-06 12:27 | 22.33359 | 114.01386 | 3089 ft | 263 kts | 72° |
| 2026-05-06 12:27 | 22.33856 | 114.03315 | 3657 ft | 270 kts | 86° |
| 2026-05-06 12:27 | 22.33652 | 114.05324 | 4375 ft | 271 kts | 112° |
| 2026-05-06 12:28 | 22.32705 | 114.07071 | 5120 ft | 272 kts | 135° |
| 2026-05-06 12:28 | 22.31170 | 114.08279 | 5736 ft | 277 kts | 160° |
| 2026-05-06 12:29 | 22.22856 | 114.08691 | 8660 ft | 288 kts | 184° |
| 2026-05-06 12:29 | 22.20840 | 114.08662 | 9355 ft | 291 kts | 184° |
| 2026-05-06 12:29 | 22.18801 | 114.08642 | 10008 ft | 294 kts | 181° |
| 2026-05-06 12:30 | 22.16760 | 114.09098 | 10349 ft | 314 kts | 156° |
| 2026-05-06 12:30 | 22.15018 | 114.10648 | 10495 ft | 342 kts | 126° |
| 2026-05-06 12:30 | 22.13849 | 114.12949 | 10657 ft | 361 kts | 116° |
| 2026-05-06 12:30 | 22.12730 | 114.15473 | 10820 ft | 384 kts | 116° |
| 2026-05-06 12:31 | 22.11543 | 114.18115 | 11230 ft | 397 kts | 117° |
| 2026-05-06 12:31 | 22.10293 | 114.20805 | 11827 ft | 406 kts | 117° |
| 2026-05-06 12:31 | 22.08999 | 114.23533 | 12590 ft | 410 kts | 117° |
| 2026-05-06 12:31 | 22.07575 | 114.26141 | 13239 ft | 413 kts | 129° |
| 2026-05-06 12:32 | 22.05444 | 114.28206 | 13831 ft | 412 kts | 147° |
| 2026-05-06 12:32 | 22.03049 | 114.29958 | 14393 ft | 419 kts | 147° |
| 2026-05-06 12:32 | 22.00659 | 114.31772 | 15125 ft | 421 kts | 146° |
| 2026-05-06 12:32 | 21.98284 | 114.33631 | 15873 ft | 423 kts | 145° |
| 2026-05-06 12:33 | 21.95904 | 114.35511 | 16568 ft | 426 kts | 145° |
| 2026-05-06 12:33 | 21.93501 | 114.37410 | 17242 ft | 430 kts | 146° |
| 2026-05-06 12:33 | 21.91077 | 114.39321 | 17906 ft | 433 kts | 146° |
| 2026-05-06 12:33 | 21.88652 | 114.41256 | 18495 ft | 433 kts | 142° |
| 2026-05-06 12:34 | 21.86622 | 114.43699 | 18833 ft | 446 kts | 122° |
| 2026-05-06 12:34 | 21.85441 | 114.46760 | 19321 ft | 454 kts | 105° |
| 2026-05-06 12:34 | 21.85093 | 114.50138 | 19876 ft | 456 kts | 88° |
| 2026-05-06 12:34 | 21.85341 | 114.53555 | 20297 ft | 461 kts | 85° |
| 2026-05-06 12:35 | 21.85662 | 114.57016 | 20731 ft | 468 kts | 84° |
| 2026-05-06 12:35 | 21.85993 | 114.60512 | 21243 ft | 471 kts | 85° |
| 2026-05-06 12:35 | 21.86308 | 114.64032 | 21812 ft | 474 kts | 85° |
| 2026-05-06 12:35 | 21.86506 | 114.66383 | 22155 ft | 477 kts | 85° |
| 2026-05-06 12:36 | 21.86792 | 114.69950 | 22651 ft | 481 kts | 86° |
| 2026-05-06 12:36 | 21.87159 | 114.74736 | 23286 ft | 487 kts | 86° |
| 2026-05-06 12:36 | 21.87433 | 114.78380 | 23717 ft | 491 kts | 86° |
| 2026-05-06 12:36 | 21.87710 | 114.82053 | 24143 ft | 494 kts | 86° |
| 2026-05-06 12:37 | 21.87988 | 114.85744 | 24591 ft | 496 kts | 86° |
| 2026-05-06 12:37 | 21.88174 | 114.88200 | 24885 ft | 497 kts | 86° |
| 2026-05-06 12:37 | 21.88453 | 114.91915 | 25317 ft | 499 kts | 86° |
| 2026-05-06 12:37 | 21.88647 | 114.95658 | 25721 ft | 502 kts | 88° |
| 2026-05-06 12:38 | 21.88754 | 114.99428 | 26118 ft | 505 kts | 89° |
| 2026-05-06 12:38 | 21.88855 | 115.04343 | 26631 ft | 509 kts | 89° |
| 2026-05-06 12:38 | 21.88943 | 115.08163 | 27010 ft | 512 kts | 88° |
| 2026-05-06 12:38 | 21.89047 | 115.12002 | 27387 ft | 515 kts | 88° |
| 2026-05-06 12:39 | 21.89125 | 115.14610 | 27672 ft | 516 kts | 88° |
| 2026-05-06 12:39 | 21.89244 | 115.18427 | 28044 ft | 518 kts | 88° |
| 2026-05-06 12:39 | 21.89365 | 115.22318 | 28406 ft | 521 kts | 88° |
| 2026-05-06 12:39 | 21.89484 | 115.26224 | 28746 ft | 523 kts | 88° |
| 2026-05-06 12:40 | 21.89600 | 115.30150 | 29074 ft | 526 kts | 88° |
| 2026-05-06 12:40 | 21.89713 | 115.34096 | 29390 ft | 528 kts | 88° |
| 2026-05-06 12:40 | 21.89825 | 115.38058 | 29670 ft | 531 kts | 88° |
| 2026-05-06 12:40 | 21.89937 | 115.42040 | 29958 ft | 533 kts | 88° |
| 2026-05-06 12:41 | 21.90048 | 115.46039 | 30222 ft | 535 kts | 88° |
| 2026-05-06 12:41 | 21.90159 | 115.50031 | 30599 ft | 532 kts | 88° |
| 2026-05-06 12:41 | 21.90268 | 115.53955 | 31006 ft | 530 kts | 88° |
| 2026-05-06 12:41 | 21.90376 | 115.57914 | 31414 ft | 528 kts | 88° |
| 2026-05-06 12:42 | 21.90567 | 115.61854 | 31834 ft | 526 kts | 84° |
| 2026-05-06 12:42 | 21.91054 | 115.65745 | 32240 ft | 523 kts | 77° |
| 2026-05-06 12:42 | 21.91828 | 115.69562 | 32676 ft | 520 kts | 76° |
| 2026-05-06 12:42 | 21.92642 | 115.73345 | 33121 ft | 518 kts | 75° |
| 2026-05-06 12:43 | 21.93455 | 115.77118 | 33569 ft | 516 kts | 76° |
| 2026-05-06 12:43 | 21.94249 | 115.80876 | 34010 ft | 514 kts | 76° |
| 2026-05-06 12:43 | 21.95014 | 115.84569 | 34400 ft | 511 kts | 76° |
| 2026-05-06 12:43 | 21.95776 | 115.88302 | 34788 ft | 509 kts | 76° |
| 2026-05-06 12:44 | 21.96530 | 115.92024 | 35003 ft | 511 kts | 76° |
| 2026-05-06 12:44 | 21.97291 | 115.95782 | 34978 ft | 516 kts | 76° |
| 2026-05-06 12:44 | 21.98811 | 116.03293 | 34986 ft | 524 kts | 76° |
| 2026-05-06 12:45 | 22.00850 | 116.10760 | 34978 ft | 516 kts | 58° |
| 2026-05-06 12:45 | 22.05679 | 116.16156 | 34989 ft | 502 kts | 27° |
| 2026-05-06 12:46 | 22.08808 | 116.17780 | 34992 ft | 498 kts | 17° |
| 2026-05-06 12:46 | 22.12125 | 116.18787 | 34966 ft | 493 kts | 5° |
| 2026-05-06 12:46 | 22.15509 | 116.18936 | 34993 ft | 484 kts | 355° |
| 2026-05-06 12:47 | 22.22257 | 116.18575 | 34983 ft | 486 kts | 354° |
| 2026-05-06 12:47 | 22.28987 | 116.18235 | 34974 ft | 488 kts | 354° |
| 2026-05-06 12:48 | 22.35791 | 116.17984 | 35046 ft | 490 kts | 355° |
| 2026-05-06 12:48 | 22.39198 | 116.17874 | 35352 ft | 488 kts | 355° |
| 2026-05-06 12:48 | 22.42575 | 116.17768 | 35746 ft | 484 kts | 355° |
| 2026-05-06 12:48 | 22.45933 | 116.17660 | 35999 ft | 483 kts | 355° |
| 2026-05-06 12:49 | 22.49305 | 116.17549 | 35976 ft | 484 kts | 355° |
| 2026-05-06 12:49 | 22.55965 | 116.17328 | 35966 ft | 480 kts | 355° |
| 2026-05-06 12:50 | 22.62618 | 116.17105 | 35969 ft | 478 kts | 354° |
| 2026-05-06 12:50 | 22.69254 | 116.17210 | 35970 ft | 481 kts | 7° |
| 2026-05-06 12:50 | 22.72491 | 116.18180 | 35993 ft | 487 kts | 18° |
| 2026-05-06 12:51 | 22.75566 | 116.19772 | 35967 ft | 494 kts | 29° |
| 2026-05-06 12:51 | 22.81032 | 116.24281 | 35969 ft | 500 kts | 35° |
| 2026-05-06 12:52 | 22.86486 | 116.28994 | 35975 ft | 503 kts | 34° |
| 2026-05-06 12:52 | 22.92033 | 116.33633 | 35984 ft | 504 kts | 34° |
| 2026-05-06 12:53 | 22.97611 | 116.38263 | 35973 ft | 505 kts | 33° |
| 2026-05-06 12:53 | 23.03196 | 116.42868 | 35970 ft | 504 kts | 33° |
| 2026-05-06 12:54 | 23.08739 | 116.47441 | 35969 ft | 503 kts | 33° |
| 2026-05-06 12:54 | 23.14301 | 116.52041 | 35965 ft | 502 kts | 33° |
| 2026-05-06 12:55 | 23.19845 | 116.56633 | 35972 ft | 501 kts | 34° |
| 2026-05-06 12:55 | 23.25379 | 116.61221 | 35976 ft | 500 kts | 33° |
| 2026-05-06 12:56 | 23.30868 | 116.65777 | 35971 ft | 499 kts | 33° |
| 2026-05-06 12:56 | 23.36386 | 116.70363 | 35973 ft | 499 kts | 33° |
| 2026-05-06 12:57 | 23.41906 | 116.74954 | 35972 ft | 499 kts | 34° |
| 2026-05-06 12:57 | 23.47092 | 116.80019 | 35993 ft | 503 kts | 43° |
| 2026-05-06 12:58 | 23.51906 | 116.85553 | 36070 ft | 504 kts | 43° |
| 2026-05-06 12:58 | 23.56695 | 116.91069 | 36081 ft | 505 kts | 43° |
| 2026-05-06 12:59 | 23.61562 | 116.96608 | 36081 ft | 506 kts | 43° |
| 2026-05-06 12:59 | 23.66382 | 117.02078 | 36082 ft | 508 kts | 43° |
| 2026-05-06 13:00 | 23.71271 | 117.07639 | 36082 ft | 508 kts | 43° |
| 2026-05-06 13:00 | 23.76167 | 117.13209 | 36091 ft | 508 kts | 41° |
| 2026-05-06 13:01 | 23.81311 | 117.18400 | 36265 ft | 507 kts | 38° |
| 2026-05-06 13:01 | 23.83949 | 117.20939 | 36609 ft | 504 kts | 37° |
| 2026-05-06 13:01 | 23.86571 | 117.23462 | 36980 ft | 501 kts | 37° |
| 2026-05-06 13:02 | 23.91765 | 117.28496 | 37077 ft | 496 kts | 37° |
| 2026-05-06 13:02 | 23.96867 | 117.33486 | 37081 ft | 490 kts | 37° |
| 2026-05-06 13:03 | 24.01899 | 117.38419 | 37021 ft | 488 kts | 37° |
| 2026-05-06 13:03 | 24.04431 | 117.40901 | 36793 ft | 489 kts | 38° |
| 2026-05-06 13:03 | 24.06968 | 117.43388 | 36583 ft | 490 kts | 38° |
| 2026-05-06 13:03 | 24.09502 | 117.45877 | 36371 ft | 489 kts | 38° |
| 2026-05-06 13:04 | 24.12032 | 117.48361 | 36141 ft | 488 kts | 38° |
| 2026-05-06 13:04 | 24.14514 | 117.50888 | 35940 ft | 488 kts | 42° |
| 2026-05-06 13:04 | 24.16836 | 117.53595 | 35710 ft | 487 kts | 44° |
| 2026-05-06 13:04 | 24.19110 | 117.56339 | 35497 ft | 486 kts | 44° |
| 2026-05-06 13:05 | 24.21366 | 117.59088 | 35293 ft | 484 kts | 44° |
| 2026-05-06 13:05 | 24.23613 | 117.61824 | 35076 ft | 483 kts | 44° |
| 2026-05-06 13:05 | 24.25865 | 117.64554 | 34870 ft | 485 kts | 44° |
| 2026-05-06 13:05 | 24.28162 | 117.67320 | 34708 ft | 496 kts | 44° |
| 2026-05-06 13:06 | 24.30482 | 117.70107 | 34510 ft | 506 kts | 44° |
| 2026-05-06 13:06 | 24.32863 | 117.72968 | 34333 ft | 509 kts | 44° |
| 2026-05-06 13:06 | 24.35250 | 117.75840 | 34136 ft | 510 kts | 45° |
| 2026-05-06 13:06 | 24.37641 | 117.78722 | 33920 ft | 511 kts | 45° |
| 2026-05-06 13:07 | 24.40031 | 117.81603 | 33692 ft | 511 kts | 45° |
| 2026-05-06 13:07 | 24.42424 | 117.84488 | 33476 ft | 511 kts | 45° |
| 2026-05-06 13:07 | 24.44818 | 117.87377 | 33249 ft | 514 kts | 45° |
| 2026-05-06 13:07 | 24.47233 | 117.90291 | 33146 ft | 518 kts | 45° |
| 2026-05-06 13:08 | 24.49670 | 117.93234 | 33121 ft | 523 kts | 45° |
| 2026-05-06 13:08 | 24.54430 | 117.98991 | 33073 ft | 527 kts | 45° |
| 2026-05-06 13:09 | 24.59312 | 118.04803 | 33072 ft | 524 kts | 43° |
| 2026-05-06 13:09 | 24.64395 | 118.10524 | 33085 ft | 522 kts | 43° |
| 2026-05-06 13:10 | 24.69440 | 118.16247 | 33078 ft | 521 kts | 43° |
| 2026-05-06 13:10 | 24.74461 | 118.21979 | 33090 ft | 520 kts | 43° |
| 2026-05-06 13:11 | 24.79456 | 118.27661 | 33082 ft | 520 kts | 43° |
| 2026-05-06 13:11 | 24.84486 | 118.33391 | 33092 ft | 521 kts | 43° |
| 2026-05-06 13:12 | 24.89519 | 118.39137 | 33097 ft | 522 kts | 43° |
| 2026-05-06 13:12 | 24.94557 | 118.44898 | 33105 ft | 522 kts | 43° |
| 2026-05-06 13:13 | 24.99594 | 118.50665 | 33098 ft | 523 kts | 43° |
| 2026-05-06 13:13 | 25.04597 | 118.56400 | 33107 ft | 523 kts | 43° |
| 2026-05-06 13:14 | 25.09638 | 118.62186 | 33131 ft | 523 kts | 43° |
| 2026-05-06 13:14 | 25.14588 | 118.68077 | 33118 ft | 523 kts | 44° |
| 2026-05-06 13:15 | 25.19481 | 118.74021 | 33125 ft | 523 kts | 44° |
| 2026-05-06 13:15 | 25.24352 | 118.79910 | 33123 ft | 523 kts | 44° |
| 2026-05-06 13:16 | 25.29264 | 118.85835 | 33125 ft | 523 kts | 44° |
| 2026-05-06 13:16 | 25.34174 | 118.91765 | 33129 ft | 523 kts | 44° |
| 2026-05-06 13:17 | 25.39144 | 118.97632 | 33129 ft | 523 kts | 43° |
| 2026-05-06 13:17 | 25.44090 | 119.03374 | 33120 ft | 523 kts | 43° |
| 2026-05-06 13:18 | 25.49066 | 119.09177 | 33120 ft | 523 kts | 43° |
| 2026-05-06 13:18 | 25.54059 | 119.15031 | 33128 ft | 523 kts | 43° |
| 2026-05-06 13:19 | 25.59052 | 119.20897 | 33121 ft | 524 kts | 43° |
| 2026-05-06 13:19 | 25.64051 | 119.26776 | 33110 ft | 524 kts | 44° |
| 2026-05-06 13:20 | 25.69008 | 119.32606 | 33125 ft | 523 kts | 44° |
| 2026-05-06 13:20 | 25.74513 | 119.37739 | 33132 ft | 514 kts | 28° |
| 2026-05-06 13:21 | 25.80940 | 119.41067 | 33118 ft | 507 kts | 14° |
| 2026-05-06 13:21 | 25.87707 | 119.43282 | 33127 ft | 507 kts | 12° |
| 2026-05-06 13:22 | 25.94453 | 119.45442 | 33126 ft | 508 kts | 13° |
| 2026-05-06 13:22 | 26.01220 | 119.47713 | 33133 ft | 509 kts | 13° |
| 2026-05-06 13:23 | 26.07996 | 119.50028 | 33122 ft | 509 kts | 13° |
| 2026-05-06 13:23 | 26.14770 | 119.52336 | 33109 ft | 509 kts | 13° |
| 2026-05-06 13:24 | 26.21431 | 119.54866 | 33126 ft | 512 kts | 20° |
| 2026-05-06 13:24 | 26.27718 | 119.58645 | 33135 ft | 516 kts | 29° |
| 2026-05-06 13:25 | 26.33749 | 119.62992 | 33122 ft | 517 kts | 30° |
| 2026-05-06 13:25 | 26.39805 | 119.67311 | 33121 ft | 516 kts | 29° |
| 2026-05-06 13:26 | 26.45838 | 119.71551 | 33125 ft | 516 kts | 29° |
| 2026-05-06 13:26 | 26.51921 | 119.75820 | 33128 ft | 517 kts | 29° |
| 2026-05-06 13:27 | 26.58005 | 119.80081 | 33132 ft | 516 kts | 29° |
| 2026-05-06 13:27 | 26.64086 | 119.84349 | 33131 ft | 515 kts | 29° |
| 2026-05-06 13:28 | 26.70148 | 119.88612 | 33145 ft | 514 kts | 29° |
| 2026-05-06 13:28 | 26.76161 | 119.92847 | 33145 ft | 514 kts | 29° |
| 2026-05-06 13:29 | 26.82210 | 119.97112 | 33139 ft | 514 kts | 29° |
| 2026-05-06 13:29 | 26.88170 | 120.01320 | 33149 ft | 514 kts | 29° |
| 2026-05-06 13:30 | 26.94211 | 120.05613 | 33159 ft | 514 kts | 29° |
| 2026-05-06 13:30 | 27.00208 | 120.09885 | 33152 ft | 515 kts | 29° |
| 2026-05-06 13:31 | 27.06252 | 120.14196 | 33155 ft | 515 kts | 29° |
| 2026-05-06 13:31 | 27.12284 | 120.18502 | 33115 ft | 511 kts | 29° |
| 2026-05-06 13:31 | 27.15285 | 120.20632 | 32816 ft | 511 kts | 28° |
| 2026-05-06 13:32 | 27.18312 | 120.22754 | 32322 ft | 515 kts | 28° |
| 2026-05-06 13:32 | 27.21370 | 120.24889 | 31761 ft | 521 kts | 28° |
| 2026-05-06 13:32 | 27.24461 | 120.27049 | 31228 ft | 525 kts | 28° |
| 2026-05-06 13:32 | 27.27571 | 120.29229 | 30719 ft | 529 kts | 28° |
| 2026-05-06 13:33 | 27.30656 | 120.31399 | 30230 ft | 532 kts | 28° |
| 2026-05-06 13:33 | 27.33797 | 120.33611 | 29668 ft | 534 kts | 28° |
| 2026-05-06 13:33 | 27.36955 | 120.35835 | 29136 ft | 536 kts | 28° |
| 2026-05-06 13:33 | 27.40111 | 120.38069 | 28617 ft | 537 kts | 29° |
| 2026-05-06 13:34 | 27.43272 | 120.40319 | 28044 ft | 539 kts | 29° |
| 2026-05-06 13:34 | 27.46439 | 120.42578 | 27518 ft | 539 kts | 29° |
| 2026-05-06 13:34 | 27.49612 | 120.44842 | 26998 ft | 540 kts | 29° |
| 2026-05-06 13:34 | 27.52775 | 120.47099 | 26679 ft | 535 kts | 29° |
| 2026-05-06 13:35 | 27.55862 | 120.49306 | 26651 ft | 531 kts | 29° |
| 2026-05-06 13:35 | 27.58984 | 120.51536 | 26647 ft | 532 kts | 29° |
| 2026-05-06 13:35 | 27.62118 | 120.53775 | 26645 ft | 534 kts | 29° |
| 2026-05-06 13:35 | 27.65254 | 120.56018 | 26639 ft | 534 kts | 29° |
| 2026-05-06 13:36 | 27.68389 | 120.58264 | 26641 ft | 533 kts | 29° |
| 2026-05-06 13:36 | 27.71568 | 120.60387 | 26642 ft | 530 kts | 23° |
| 2026-05-06 13:36 | 27.74948 | 120.62002 | 26645 ft | 526 kts | 15° |
| 2026-05-06 13:36 | 27.78444 | 120.63150 | 26647 ft | 523 kts | 9° |
| 2026-05-06 13:37 | 27.82015 | 120.63835 | 26639 ft | 518 kts | 1° |
| 2026-05-06 13:37 | 27.85554 | 120.64132 | 26648 ft | 517 kts | 360° |
| 2026-05-06 13:37 | 27.89149 | 120.64392 | 26639 ft | 518 kts | 360° |
| 2026-05-06 13:37 | 27.92744 | 120.64672 | 26645 ft | 518 kts | 0° |
| 2026-05-06 13:38 | 27.96337 | 120.64986 | 26642 ft | 518 kts | 1° |
| 2026-05-06 13:38 | 27.99933 | 120.65323 | 26648 ft | 519 kts | 1° |
| 2026-05-06 13:38 | 28.03522 | 120.65665 | 26646 ft | 519 kts | 1° |
| 2026-05-06 13:38 | 28.07123 | 120.66016 | 26637 ft | 519 kts | 1° |
| 2026-05-06 13:39 | 28.10424 | 120.66344 | 26644 ft | 519 kts | 1° |
| 2026-05-06 13:39 | 28.14025 | 120.66701 | 26655 ft | 519 kts | 1° |
| 2026-05-06 13:39 | 28.17624 | 120.67058 | 26649 ft | 520 kts | 1° |
| 2026-05-06 13:39 | 28.21177 | 120.67409 | 26642 ft | 520 kts | 1° |
| 2026-05-06 13:40 | 28.24781 | 120.67766 | 26646 ft | 520 kts | 1° |
| 2026-05-06 13:40 | 28.28379 | 120.68123 | 26647 ft | 520 kts | 1° |
| 2026-05-06 13:40 | 28.31981 | 120.68479 | 26642 ft | 519 kts | 1° |
| 2026-05-06 13:40 | 28.35579 | 120.68836 | 26652 ft | 519 kts | 1° |
| 2026-05-06 13:41 | 28.39176 | 120.69191 | 26655 ft | 519 kts | 1° |
| 2026-05-06 13:41 | 28.42773 | 120.69548 | 26642 ft | 519 kts | 1° |
| 2026-05-06 13:41 | 28.46371 | 120.69905 | 26639 ft | 519 kts | 1° |
| 2026-05-06 13:41 | 28.49964 | 120.70265 | 26646 ft | 519 kts | 1° |
| 2026-05-06 13:42 | 28.53509 | 120.70621 | 26640 ft | 519 kts | 1° |
| 2026-05-06 13:42 | 28.57108 | 120.70982 | 26659 ft | 519 kts | 1° |
| 2026-05-06 13:42 | 28.60710 | 120.71345 | 26650 ft | 520 kts | 1° |
| 2026-05-06 13:42 | 28.64309 | 120.71707 | 26637 ft | 520 kts | 1° |
| 2026-05-06 13:43 | 28.67915 | 120.72070 | 26647 ft | 520 kts | 1° |
| 2026-05-06 13:43 | 28.71518 | 120.72438 | 26633 ft | 520 kts | 1° |
| 2026-05-06 13:43 | 28.75120 | 120.72825 | 26638 ft | 520 kts | 1° |
| 2026-05-06 13:43 | 28.78722 | 120.73219 | 26608 ft | 519 kts | 1° |
| 2026-05-06 13:44 | 28.82258 | 120.73607 | 26336 ft | 517 kts | 1° |
| 2026-05-06 13:44 | 28.85835 | 120.73995 | 26019 ft | 515 kts | 1° |
| 2026-05-06 13:44 | 28.89392 | 120.74372 | 25749 ft | 512 kts | 1° |
| 2026-05-06 13:44 | 28.92932 | 120.74738 | 25502 ft | 509 kts | 1° |
| 2026-05-06 13:45 | 28.96454 | 120.75099 | 25231 ft | 507 kts | 1° |
| 2026-05-06 13:45 | 29.03452 | 120.75815 | 24727 ft | 504 kts | 1° |
| 2026-05-06 13:45 | 29.06938 | 120.76176 | 24496 ft | 502 kts | 1° |
| 2026-05-06 13:46 | 29.10410 | 120.76537 | 24290 ft | 499 kts | 1° |
| 2026-05-06 13:46 | 29.13815 | 120.76888 | 24086 ft | 497 kts | 1° |
| 2026-05-06 13:46 | 29.17255 | 120.77243 | 23866 ft | 496 kts | 2° |
| 2026-05-06 13:46 | 29.20687 | 120.77598 | 23630 ft | 495 kts | 2° |
| 2026-05-06 13:47 | 29.24114 | 120.77954 | 23377 ft | 494 kts | 2° |
| 2026-05-06 13:47 | 29.27525 | 120.78309 | 23169 ft | 491 kts | 2° |
| 2026-05-06 13:47 | 29.30922 | 120.78664 | 22983 ft | 489 kts | 2° |
| 2026-05-06 13:47 | 29.34308 | 120.79017 | 22762 ft | 488 kts | 2° |
| 2026-05-06 13:48 | 29.37644 | 120.79366 | 22538 ft | 487 kts | 2° |
| 2026-05-06 13:48 | 29.41011 | 120.79716 | 22315 ft | 485 kts | 2° |
| 2026-05-06 13:48 | 29.44362 | 120.80065 | 22126 ft | 483 kts | 2° |
| 2026-05-06 13:48 | 29.47702 | 120.80414 | 21935 ft | 481 kts | 2° |
| 2026-05-06 13:49 | 29.51033 | 120.80762 | 21720 ft | 480 kts | 2° |
| 2026-05-06 13:49 | 29.54353 | 120.81109 | 21502 ft | 479 kts | 2° |
| 2026-05-06 13:49 | 29.57657 | 120.81656 | 21303 ft | 481 kts | 9° |
| 2026-05-06 13:49 | 29.60885 | 120.82674 | 21134 ft | 482 kts | 15° |
| 2026-05-06 13:50 | 29.64015 | 120.84062 | 20973 ft | 482 kts | 22° |
| 2026-05-06 13:50 | 29.66959 | 120.85799 | 20800 ft | 482 kts | 26° |
| 2026-05-06 13:50 | 29.69900 | 120.87641 | 20595 ft | 481 kts | 26° |
| 2026-05-06 13:50 | 29.72831 | 120.89491 | 20406 ft | 480 kts | 26° |
| 2026-05-06 13:51 | 29.75762 | 120.91328 | 20254 ft | 478 kts | 26° |
| 2026-05-06 13:51 | 29.78686 | 120.93145 | 20102 ft | 477 kts | 25° |
| 2026-05-06 13:51 | 29.81609 | 120.94948 | 19943 ft | 476 kts | 25° |
| 2026-05-06 13:51 | 29.84527 | 120.96740 | 19809 ft | 474 kts | 25° |
| 2026-05-06 13:52 | 29.87431 | 120.98523 | 19683 ft | 472 kts | 26° |
| 2026-05-06 13:52 | 29.90243 | 121.00250 | 19552 ft | 471 kts | 26° |
| 2026-05-06 13:52 | 29.93133 | 121.02029 | 19395 ft | 471 kts | 26° |
| 2026-05-06 13:52 | 29.95977 | 121.03782 | 19218 ft | 470 kts | 26° |
| 2026-05-06 13:53 | 29.98858 | 121.05559 | 19078 ft | 469 kts | 26° |
| 2026-05-06 13:53 | 30.01713 | 121.07323 | 19049 ft | 465 kts | 26° |
| 2026-05-06 13:53 | 30.04552 | 121.09080 | 19025 ft | 461 kts | 26° |
| 2026-05-06 13:53 | 30.07363 | 121.10821 | 18998 ft | 452 kts | 26° |
| 2026-05-06 13:54 | 30.10071 | 121.12502 | 18643 ft | 435 kts | 26° |
| 2026-05-06 13:54 | 30.12776 | 121.14177 | 18235 ft | 445 kts | 26° |
| 2026-05-06 13:54 | 30.15502 | 121.15865 | 18161 ft | 443 kts | 26° |
| 2026-05-06 13:54 | 30.18212 | 121.17546 | 18149 ft | 441 kts | 26° |
| 2026-05-06 13:55 | 30.20870 | 121.19197 | 18152 ft | 439 kts | 26° |
| 2026-05-06 13:55 | 30.23555 | 121.20865 | 18139 ft | 437 kts | 26° |
| 2026-05-06 13:55 | 30.26289 | 121.22318 | 18000 ft | 431 kts | 14° |
| 2026-05-06 13:55 | 30.29203 | 121.22869 | 17771 ft | 424 kts | 1° |
| 2026-05-06 13:56 | 30.32157 | 121.23139 | 17457 ft | 427 kts | 1° |
| 2026-05-06 13:56 | 30.35122 | 121.23437 | 16927 ft | 428 kts | 2° |
| 2026-05-06 13:56 | 30.38073 | 121.23778 | 16407 ft | 424 kts | 3° |
| 2026-05-06 13:56 | 30.40996 | 121.24146 | 15811 ft | 422 kts | 4° |
| 2026-05-06 13:57 | 30.43912 | 121.24522 | 15156 ft | 422 kts | 4° |
| 2026-05-06 13:57 | 30.46827 | 121.24906 | 14517 ft | 421 kts | 5° |
| 2026-05-06 13:57 | 30.49732 | 121.25309 | 13885 ft | 420 kts | 4° |
| 2026-05-06 13:57 | 30.52588 | 121.25712 | 13191 ft | 413 kts | 5° |
| 2026-05-06 13:58 | 30.55359 | 121.26107 | 12447 ft | 389 kts | 4° |
| 2026-05-06 13:58 | 30.57978 | 121.26475 | 11864 ft | 373 kts | 5° |
| 2026-05-06 13:58 | 30.60552 | 121.26836 | 11382 ft | 372 kts | 4° |
| 2026-05-06 13:58 | 30.63109 | 121.27188 | 11038 ft | 366 kts | 5° |
| 2026-05-06 13:59 | 30.65590 | 121.27536 | 10762 ft | 350 kts | 5° |
| 2026-05-06 13:59 | 30.67948 | 121.27866 | 10150 ft | 334 kts | 5° |
| 2026-05-06 13:59 | 30.70224 | 121.28185 | 9590 ft | 327 kts | 4° |
| 2026-05-06 13:59 | 30.72377 | 121.28486 | 9231 ft | 305 kts | 5° |
| 2026-05-06 14:00 | 30.74432 | 121.28776 | 8830 ft | 294 kts | 5° |
| 2026-05-06 14:00 | 30.76450 | 121.29059 | 8576 ft | 289 kts | 4° |
| 2026-05-06 14:00 | 30.78425 | 121.29337 | 8395 ft | 283 kts | 4° |
| 2026-05-06 14:00 | 30.80360 | 121.29607 | 8161 ft | 278 kts | 4° |
| 2026-05-06 14:01 | 30.82269 | 121.29875 | 7958 ft | 272 kts | 5° |
| 2026-05-06 14:01 | 30.84147 | 121.30139 | 7666 ft | 272 kts | 4° |
| 2026-05-06 14:01 | 30.86035 | 121.30403 | 7320 ft | 273 kts | 5° |
| 2026-05-06 14:01 | 30.87920 | 121.30668 | 7032 ft | 272 kts | 5° |
| 2026-05-06 14:02 | 30.89797 | 121.30934 | 6736 ft | 271 kts | 5° |
| 2026-05-06 14:02 | 30.91667 | 121.31199 | 6429 ft | 270 kts | 5° |
| 2026-05-06 14:02 | 30.93506 | 121.31457 | 6132 ft | 269 kts | 5° |
| 2026-05-06 14:02 | 30.95350 | 121.31721 | 5963 ft | 262 kts | 5° |
| 2026-05-06 14:03 | 30.97152 | 121.31980 | 5918 ft | 262 kts | 5° |
| 2026-05-06 14:03 | 30.98983 | 121.32243 | 5920 ft | 268 kts | 5° |
| 2026-05-06 14:03 | 31.00846 | 121.32511 | 5919 ft | 271 kts | 5° |
| 2026-05-06 14:03 | 31.02716 | 121.32781 | 5909 ft | 270 kts | 5° |
| 2026-05-06 14:04 | 31.04582 | 121.33050 | 5903 ft | 270 kts | 5° |
| 2026-05-06 14:04 | 31.06436 | 121.33316 | 5897 ft | 265 kts | 5° |
| 2026-05-06 14:04 | 31.08224 | 121.33575 | 5885 ft | 252 kts | 6° |
| 2026-05-06 14:04 | 31.09872 | 121.33814 | 5883 ft | 237 kts | 5° |
| 2026-05-06 14:05 | 31.11440 | 121.33954 | 5859 ft | 216 kts | 348° |
| 2026-05-06 14:05 | 31.12805 | 121.33312 | 5936 ft | 208 kts | 321° |
| 2026-05-06 14:05 | 31.13751 | 121.32221 | 5904 ft | 193 kts | 308° |
| 2026-05-06 14:05 | 31.14591 | 121.31018 | 5910 ft | 190 kts | 307° |
| 2026-05-06 14:06 | 31.15443 | 121.29782 | 5578 ft | 199 kts | 306° |
| 2026-05-06 14:06 | 31.16300 | 121.28545 | 5397 ft | 193 kts | 307° |
| 2026-05-06 14:06 | 31.17135 | 121.27346 | 5243 ft | 189 kts | 307° |
| 2026-05-06 14:06 | 31.17965 | 121.26156 | 5131 ft | 190 kts | 307° |
| 2026-05-06 14:07 | 31.18794 | 121.24970 | 5030 ft | 192 kts | 307° |
| 2026-05-06 14:07 | 31.19639 | 121.23763 | 4965 ft | 192 kts | 307° |
| 2026-05-06 14:07 | 31.20658 | 121.22789 | 4884 ft | 194 kts | 341° |
| 2026-05-06 14:07 | 31.22010 | 121.22635 | 4934 ft | 200 kts | 355° |
| 2026-05-06 14:08 | 31.23421 | 121.22559 | 4907 ft | 204 kts | 354° |
| 2026-05-06 14:08 | 31.24867 | 121.22477 | 4502 ft | 207 kts | 354° |
| 2026-05-06 14:08 | 31.26272 | 121.22401 | 4285 ft | 198 kts | 354° |
| 2026-05-06 14:08 | 31.27629 | 121.22327 | 4148 ft | 195 kts | 354° |
| 2026-05-06 14:09 | 31.28981 | 121.22253 | 4036 ft | 199 kts | 354° |
| 2026-05-06 14:09 | 31.30351 | 121.22180 | 3932 ft | 193 kts | 354° |
| 2026-05-06 14:09 | 31.31683 | 121.22107 | 3782 ft | 190 kts | 354° |
| 2026-05-06 14:09 | 31.32988 | 121.22036 | 3654 ft | 187 kts | 354° |
| 2026-05-06 14:10 | 31.34294 | 121.21965 | 3539 ft | 189 kts | 354° |
| 2026-05-06 14:10 | 31.35614 | 121.21893 | 3434 ft | 191 kts | 354° |
| 2026-05-06 14:10 | 31.36940 | 121.21944 | 3285 ft | 193 kts | 15° |
| 2026-05-06 14:10 | 31.37974 | 121.22861 | 3152 ft | 187 kts | 63° |
| 2026-05-06 14:11 | 31.38216 | 121.24303 | 3093 ft | 185 kts | 93° |
| 2026-05-06 14:11 | 31.38222 | 121.25844 | 2978 ft | 192 kts | 92° |
| 2026-05-06 14:11 | 31.38242 | 121.27386 | 2837 ft | 187 kts | 93° |
| 2026-05-06 14:11 | 31.38254 | 121.28889 | 2710 ft | 183 kts | 93° |
| 2026-05-06 14:12 | 31.38265 | 121.30360 | 2602 ft | 180 kts | 94° |
| 2026-05-06 14:12 | 31.37994 | 121.31732 | 2466 ft | 174 kts | 128° |
| 2026-05-06 14:12 | 31.37112 | 121.32612 | 2397 ft | 164 kts | 158° |
| 2026-05-06 14:12 | 31.36027 | 121.32745 | 2324 ft | 156 kts | 180° |
| 2026-05-06 14:13 | 31.34885 | 121.32799 | 2247 ft | 165 kts | 177° |
| 2026-05-06 14:13 | 31.33785 | 121.32867 | 2093 ft | 151 kts | 177° |
| 2026-05-06 14:13 | 31.32786 | 121.32923 | 1981 ft | 141 kts | 177° |
| 2026-05-06 14:13 | 31.31810 | 121.32976 | 1890 ft | 141 kts | 176° |
| 2026-05-06 14:14 | 31.30817 | 121.33029 | 1866 ft | 145 kts | 176° |
| 2026-05-06 14:14 | 31.29795 | 121.33085 | 1682 ft | 146 kts | 176° |
| 2026-05-06 14:14 | 31.28792 | 121.33140 | 1468 ft | 142 kts | 176° |
| 2026-05-06 14:14 | 31.27813 | 121.33194 | 1295 ft | 142 kts | 175° |
| 2026-05-06 14:15 | 31.26815 | 121.33248 | 1122 ft | 145 kts | 174° |
| 2026-05-06 14:15 | 31.25808 | 121.33302 | 927 ft | 145 kts | 174° |
| 2026-05-06 14:15 | 31.24806 | 121.33353 | 722 ft | 142 kts | 174° |
| 2026-05-06 14:15 | 31.23820 | 121.33403 | 522 ft | 145 kts | 175° |
| 2026-05-06 14:16 | 31.22783 | 121.33467 | 370 ft | 155 kts | 175° |
| 2026-05-06 14:16 | 31.21714 | 121.33518 | 166 ft | 150 kts | 175° |
| 2026-05-06 14:16 | 31.20705 | 121.33578 | 26 ft | 135 kts | 175° |
| 2026-05-06 14:16 | 31.19869 | 121.33624 | 26 ft | 99 kts | 177° |
| 2026-05-06 14:17 | 31.19401 | 121.33651 | 28 ft | 54 kts | 178° |
| 2026-05-06 14:17 | 31.19143 | 121.33664 | 27 ft | 29 kts | 177° |
| 2026-05-06 14:17 | 31.18950 | 121.33731 | 26 ft | 29 kts | 154° |
| 2026-05-06 14:17 | 31.18814 | 121.33829 | 26 ft | 12 kts | 147° |
| 2026-05-06 14:18 | 31.18757 | 121.33890 | 27 ft | 11 kts | 110° |
| 2026-05-06 14:18 | 31.18776 | 121.33932 | 28 ft | 4 kts | 19° |
| 2026-05-06 14:18 | 31.18802 | 121.33935 | 26 ft | 5 kts | 358° |
| 2026-05-06 14:18 | 31.18853 | 121.33933 | 26 ft | 9 kts | 357° |
| 2026-05-06 14:19 | 31.18933 | 121.33929 | 25 ft | 14 kts | 357° |
| 2026-05-06 14:19 | 31.19040 | 121.33923 | 25 ft | 17 kts | 357° |
| 2026-05-06 14:19 | 31.19172 | 121.33916 | 25 ft | 21 kts | 358° |
| 2026-05-06 14:19 | 31.19324 | 121.33908 | 28 ft | 23 kts | 357° |
| 2026-05-06 14:20 | 31.19482 | 121.33899 | 25 ft | 23 kts | 357° |
| 2026-05-06 14:20 | 31.19640 | 121.33890 | 28 ft | 23 kts | 357° |
| 2026-05-06 14:20 | 31.19752 | 121.33884 | 25 ft | 12 kts | 357° |
| 2026-05-06 14:20 | 31.19834 | 121.33880 | 25 ft | 12 kts | 358° |
| 2026-05-06 14:21 | 31.19874 | 121.33894 | 26 ft | 6 kts | 47° |
| 2026-05-06 14:21 | 31.19889 | 121.33941 | 27 ft | 6 kts | 84° |
| 2026-05-06 14:21 | 31.19870 | 121.33986 | 29 ft | 6 kts | 129° |
| 2026-05-06 14:21 | 31.19845 | 121.34017 | 28 ft | 4 kts | 135° |
| 2026-05-06 14:22 | 31.19826 | 121.34038 | 28 ft | 2 kts | 136° |
| 2026-05-06 14:22 | 31.19819 | 121.34045 | 28 ft | 0 kts | 137° |
| 2026-05-06 14:22 | 31.19818 | 121.34046 | 27 ft | 0 kts | 137° |